CEB964 RPMD-RPLL
Flight info
| Callsign | CEB964 |
|---|---|
| Flight time | N/A |
| Altitude | 34000 |
| Route | RPMD/05 ANKIN3R ANKIN B473 LAIYA LAIYA3R RPLL/06 |
| Aircraft | A21N/M-SDE3FGHIRWY/LB1 |
Departure
| Time | N/A |
|---|---|
| Airport | Francisco Bangoy International Airport (RPMD) |
Arrival
| Time | 2026-05-07 03:31 |
|---|---|
| Airport | Ninoy Aquino International Airport (RPLL) |
| Time | Latitude | Longitude | Altitude | Speed | Heading |
|---|---|---|---|---|---|
| 2026-05-07 02:23 | 8.28511 | 124.71580 | 27558 ft | 429 kts | 320° |
| 2026-05-07 02:23 | 8.30887 | 124.69640 | 27807 ft | 430 kts | 321° |
| 2026-05-07 02:23 | 8.33203 | 124.67750 | 28044 ft | 432 kts | 321° |
| 2026-05-07 02:24 | 8.35558 | 124.65828 | 28282 ft | 433 kts | 321° |
| 2026-05-07 02:24 | 8.37903 | 124.63914 | 28517 ft | 435 kts | 321° |
| 2026-05-07 02:24 | 8.40310 | 124.62027 | 28750 ft | 436 kts | 323° |
| 2026-05-07 02:24 | 8.42808 | 124.60287 | 28975 ft | 438 kts | 327° |
| 2026-05-07 02:25 | 8.45338 | 124.58730 | 29193 ft | 439 kts | 330° |
| 2026-05-07 02:25 | 8.48030 | 124.57171 | 29427 ft | 441 kts | 330° |
| 2026-05-07 02:25 | 8.50703 | 124.55638 | 29651 ft | 442 kts | 330° |
| 2026-05-07 02:25 | 8.53356 | 124.54116 | 29865 ft | 443 kts | 330° |
| 2026-05-07 02:26 | 8.56056 | 124.52565 | 30086 ft | 444 kts | 330° |
| 2026-05-07 02:26 | 8.58781 | 124.50996 | 30301 ft | 446 kts | 330° |
| 2026-05-07 02:26 | 8.61482 | 124.49439 | 30510 ft | 447 kts | 330° |
| 2026-05-07 02:26 | 8.64150 | 124.47900 | 30709 ft | 448 kts | 330° |
| 2026-05-07 02:27 | 8.66865 | 124.46333 | 30904 ft | 449 kts | 330° |
| 2026-05-07 02:27 | 8.69618 | 124.44743 | 31104 ft | 451 kts | 330° |
| 2026-05-07 02:27 | 8.72352 | 124.43163 | 31305 ft | 452 kts | 330° |
| 2026-05-07 02:27 | 8.75120 | 124.41564 | 31498 ft | 453 kts | 330° |
| 2026-05-07 02:28 | 8.77940 | 124.39934 | 31689 ft | 454 kts | 330° |
| 2026-05-07 02:28 | 8.80691 | 124.38345 | 31871 ft | 455 kts | 330° |
| 2026-05-07 02:28 | 8.83417 | 124.36769 | 32097 ft | 455 kts | 330° |
| 2026-05-07 02:28 | 8.86181 | 124.35170 | 32332 ft | 454 kts | 330° |
| 2026-05-07 02:29 | 8.88941 | 124.33574 | 32528 ft | 455 kts | 330° |
| 2026-05-07 02:29 | 8.91699 | 124.31979 | 32711 ft | 456 kts | 330° |
| 2026-05-07 02:29 | 8.94459 | 124.30382 | 32896 ft | 456 kts | 330° |
| 2026-05-07 02:29 | 8.97218 | 124.28785 | 33079 ft | 456 kts | 330° |
| 2026-05-07 02:30 | 8.99958 | 124.27200 | 33258 ft | 457 kts | 330° |
| 2026-05-07 02:30 | 9.02696 | 124.25615 | 33428 ft | 457 kts | 330° |
| 2026-05-07 02:30 | 9.05472 | 124.24007 | 33595 ft | 458 kts | 330° |
| 2026-05-07 02:30 | 9.08230 | 124.22409 | 33758 ft | 459 kts | 330° |
| 2026-05-07 02:31 | 9.10999 | 124.20805 | 33884 ft | 460 kts | 330° |
| 2026-05-07 02:31 | 9.13937 | 124.19100 | 33889 ft | 460 kts | 330° |
| 2026-05-07 02:31 | 9.19583 | 124.15823 | 33893 ft | 460 kts | 330° |
| 2026-05-07 02:32 | 9.25035 | 124.12657 | 33893 ft | 460 kts | 330° |
| 2026-05-07 02:32 | 9.30648 | 124.09396 | 33893 ft | 460 kts | 330° |
| 2026-05-07 02:33 | 9.36261 | 124.06133 | 33893 ft | 460 kts | 330° |
| 2026-05-07 02:33 | 9.41788 | 124.02937 | 33894 ft | 460 kts | 330° |
| 2026-05-07 02:34 | 9.47362 | 123.99724 | 33893 ft | 460 kts | 330° |
| 2026-05-07 02:34 | 9.52881 | 123.96528 | 33893 ft | 460 kts | 330° |
| 2026-05-07 02:35 | 9.58429 | 123.93306 | 33893 ft | 460 kts | 330° |
| 2026-05-07 02:35 | 9.63973 | 123.90085 | 33894 ft | 460 kts | 330° |
| 2026-05-07 02:36 | 9.69520 | 123.86861 | 33894 ft | 459 kts | 330° |
| 2026-05-07 02:36 | 9.74991 | 123.83678 | 33894 ft | 457 kts | 330° |
| 2026-05-07 02:37 | 9.80532 | 123.80454 | 33893 ft | 457 kts | 330° |
| 2026-05-07 02:37 | 9.86018 | 123.77259 | 33893 ft | 457 kts | 330° |
| 2026-05-07 02:38 | 9.91505 | 123.74065 | 33894 ft | 457 kts | 330° |
| 2026-05-07 02:38 | 9.97003 | 123.70863 | 33894 ft | 456 kts | 330° |
| 2026-05-07 02:39 | 9.99730 | 123.69273 | 33893 ft | 456 kts | 330° |
| 2026-05-07 02:39 | 10.07913 | 123.64498 | 33893 ft | 456 kts | 330° |
| 2026-05-07 02:40 | 10.13468 | 123.61254 | 33893 ft | 456 kts | 330° |
| 2026-05-07 02:40 | 10.18077 | 123.58562 | 33893 ft | 456 kts | 330° |
| 2026-05-07 02:41 | 10.23598 | 123.55334 | 33894 ft | 456 kts | 330° |
| 2026-05-07 02:42 | 10.32675 | 123.50032 | 34178 ft | 454 kts | 330° |
| 2026-05-07 02:42 | 10.35415 | 123.48435 | 33946 ft | 455 kts | 330° |
| 2026-05-07 02:42 | 10.40712 | 123.45346 | 33895 ft | 456 kts | 330° |
| 2026-05-07 02:43 | 10.46176 | 123.42155 | 33894 ft | 456 kts | 330° |
| 2026-05-07 02:43 | 10.51690 | 123.38933 | 33893 ft | 457 kts | 330° |
| 2026-05-07 02:44 | 10.57155 | 123.35738 | 33894 ft | 457 kts | 330° |
| 2026-05-07 02:44 | 10.62697 | 123.32496 | 33893 ft | 456 kts | 330° |
| 2026-05-07 02:45 | 10.68401 | 123.29163 | 33893 ft | 457 kts | 330° |
| 2026-05-07 02:45 | 10.73662 | 123.26090 | 33893 ft | 457 kts | 330° |
| 2026-05-07 02:46 | 10.79148 | 123.22878 | 33893 ft | 456 kts | 330° |
| 2026-05-07 02:46 | 10.84639 | 123.19659 | 33894 ft | 457 kts | 330° |
| 2026-05-07 02:47 | 10.90153 | 123.16423 | 33893 ft | 457 kts | 330° |
| 2026-05-07 02:47 | 10.95653 | 123.13194 | 33895 ft | 457 kts | 330° |
| 2026-05-07 02:48 | 11.01183 | 123.09951 | 33902 ft | 457 kts | 329° |
| 2026-05-07 02:48 | 11.06671 | 123.06732 | 33910 ft | 456 kts | 329° |
| 2026-05-07 02:49 | 11.12055 | 123.03570 | 33915 ft | 456 kts | 329° |
| 2026-05-07 02:49 | 11.17566 | 123.00330 | 33917 ft | 457 kts | 329° |
| 2026-05-07 02:50 | 11.22986 | 122.97142 | 33918 ft | 457 kts | 329° |
| 2026-05-07 02:50 | 11.28510 | 122.93890 | 33918 ft | 457 kts | 329° |
| 2026-05-07 02:51 | 11.34032 | 122.90640 | 33918 ft | 457 kts | 329° |
| 2026-05-07 02:51 | 11.39436 | 122.87460 | 33918 ft | 457 kts | 329° |
| 2026-05-07 02:52 | 11.44955 | 122.84211 | 33918 ft | 457 kts | 329° |
| 2026-05-07 02:52 | 11.50511 | 122.80935 | 33918 ft | 457 kts | 329° |
| 2026-05-07 02:53 | 11.55990 | 122.77703 | 33918 ft | 457 kts | 329° |
| 2026-05-07 02:53 | 11.61494 | 122.74316 | 33918 ft | 457 kts | 326° |
| 2026-05-07 02:54 | 11.66799 | 122.70756 | 33918 ft | 457 kts | 326° |
| 2026-05-07 02:54 | 11.72038 | 122.67223 | 33918 ft | 457 kts | 326° |
| 2026-05-07 02:55 | 11.77343 | 122.63646 | 33918 ft | 457 kts | 326° |
| 2026-05-07 02:55 | 11.82645 | 122.60073 | 33918 ft | 457 kts | 326° |
| 2026-05-07 02:56 | 11.87917 | 122.56519 | 33918 ft | 457 kts | 326° |
| 2026-05-07 02:56 | 11.93216 | 122.52945 | 33918 ft | 457 kts | 326° |
| 2026-05-07 02:57 | 11.98480 | 122.49393 | 33918 ft | 457 kts | 326° |
| 2026-05-07 02:57 | 12.03793 | 122.45805 | 33918 ft | 457 kts | 326° |
| 2026-05-07 02:58 | 12.08997 | 122.42291 | 33918 ft | 457 kts | 326° |
| 2026-05-07 02:58 | 12.14379 | 122.38655 | 33918 ft | 457 kts | 326° |
| 2026-05-07 02:59 | 12.19691 | 122.35063 | 33918 ft | 457 kts | 326° |
| 2026-05-07 02:59 | 12.24965 | 122.31496 | 33918 ft | 457 kts | 326° |
| 2026-05-07 03:00 | 12.30260 | 122.27911 | 33918 ft | 457 kts | 326° |
| 2026-05-07 03:00 | 12.35518 | 122.24349 | 33918 ft | 457 kts | 326° |
| 2026-05-07 03:01 | 12.40790 | 122.20733 | 33918 ft | 456 kts | 325° |
| 2026-05-07 03:01 | 12.45988 | 122.17119 | 33918 ft | 456 kts | 325° |
| 2026-05-07 03:02 | 12.51255 | 122.13457 | 33918 ft | 456 kts | 325° |
| 2026-05-07 03:02 | 12.56465 | 122.09834 | 33918 ft | 456 kts | 325° |
| 2026-05-07 03:03 | 12.61712 | 122.06186 | 33918 ft | 456 kts | 325° |
| 2026-05-07 03:03 | 12.66958 | 122.02536 | 33918 ft | 456 kts | 325° |
| 2026-05-07 03:04 | 12.72188 | 121.98896 | 33918 ft | 456 kts | 325° |
| 2026-05-07 03:04 | 12.77441 | 121.95239 | 33918 ft | 456 kts | 325° |
| 2026-05-07 03:05 | 12.82688 | 121.91583 | 33265 ft | 460 kts | 325° |
| 2026-05-07 03:05 | 12.85323 | 121.89748 | 32739 ft | 455 kts | 325° |
| 2026-05-07 03:05 | 12.87870 | 121.87972 | 32153 ft | 447 kts | 325° |
| 2026-05-07 03:06 | 12.90418 | 121.86196 | 31320 ft | 447 kts | 325° |
| 2026-05-07 03:06 | 12.92979 | 121.84410 | 30912 ft | 440 kts | 325° |
| 2026-05-07 03:06 | 12.95487 | 121.82660 | 30578 ft | 432 kts | 325° |
| 2026-05-07 03:06 | 12.97972 | 121.80926 | 30172 ft | 427 kts | 325° |
| 2026-05-07 03:07 | 13.00429 | 121.79211 | 29773 ft | 421 kts | 325° |
| 2026-05-07 03:07 | 13.02826 | 121.77537 | 29389 ft | 415 kts | 325° |
| 2026-05-07 03:07 | 13.05211 | 121.75872 | 29007 ft | 409 kts | 324° |
| 2026-05-07 03:07 | 13.07551 | 121.74237 | 28636 ft | 404 kts | 324° |
| 2026-05-07 03:08 | 13.09867 | 121.72618 | 28271 ft | 398 kts | 324° |
| 2026-05-07 03:08 | 13.12197 | 121.70989 | 27898 ft | 393 kts | 324° |
| 2026-05-07 03:08 | 13.14429 | 121.69429 | 27492 ft | 389 kts | 324° |
| 2026-05-07 03:08 | 13.16701 | 121.67842 | 27039 ft | 387 kts | 324° |
| 2026-05-07 03:09 | 13.18925 | 121.66286 | 26593 ft | 384 kts | 324° |
| 2026-05-07 03:09 | 13.21114 | 121.64755 | 26159 ft | 381 kts | 324° |
| 2026-05-07 03:09 | 13.23271 | 121.63246 | 25729 ft | 379 kts | 324° |
| 2026-05-07 03:09 | 13.25453 | 121.61719 | 25293 ft | 376 kts | 324° |
| 2026-05-07 03:10 | 13.27631 | 121.60195 | 24859 ft | 373 kts | 324° |
| 2026-05-07 03:10 | 13.29766 | 121.58700 | 24430 ft | 370 kts | 324° |
| 2026-05-07 03:10 | 13.31831 | 121.57253 | 24017 ft | 368 kts | 324° |
| 2026-05-07 03:10 | 13.34006 | 121.55730 | 23580 ft | 365 kts | 324° |
| 2026-05-07 03:11 | 13.36077 | 121.54279 | 23161 ft | 362 kts | 324° |
| 2026-05-07 03:11 | 13.38156 | 121.52822 | 22740 ft | 359 kts | 324° |
| 2026-05-07 03:11 | 13.40219 | 121.51376 | 22321 ft | 356 kts | 323° |
| 2026-05-07 03:11 | 13.42236 | 121.49961 | 21909 ft | 354 kts | 323° |
| 2026-05-07 03:12 | 13.44267 | 121.48537 | 21491 ft | 351 kts | 323° |
| 2026-05-07 03:12 | 13.46278 | 121.47126 | 21023 ft | 350 kts | 323° |
| 2026-05-07 03:12 | 13.48223 | 121.45761 | 20660 ft | 346 kts | 323° |
| 2026-05-07 03:12 | 13.50214 | 121.44363 | 20267 ft | 343 kts | 323° |
| 2026-05-07 03:13 | 13.52177 | 121.42986 | 20018 ft | 339 kts | 323° |
| 2026-05-07 03:13 | 13.54145 | 121.41603 | 19871 ft | 339 kts | 323° |
| 2026-05-07 03:13 | 13.56096 | 121.40233 | 19752 ft | 339 kts | 323° |
| 2026-05-07 03:13 | 13.58041 | 121.38853 | 19643 ft | 338 kts | 322° |
| 2026-05-07 03:14 | 13.59944 | 121.37447 | 19516 ft | 335 kts | 322° |
| 2026-05-07 03:14 | 13.61809 | 121.36052 | 19164 ft | 332 kts | 322° |
| 2026-05-07 03:14 | 13.65591 | 121.33286 | 18267 ft | 330 kts | 323° |
| 2026-05-07 03:15 | 13.67477 | 121.31937 | 17860 ft | 327 kts | 323° |
| 2026-05-07 03:15 | 13.69359 | 121.30591 | 17484 ft | 324 kts | 322° |
| 2026-05-07 03:15 | 13.71214 | 121.29260 | 17096 ft | 321 kts | 322° |
| 2026-05-07 03:15 | 13.73039 | 121.27947 | 16708 ft | 319 kts | 322° |
| 2026-05-07 03:16 | 13.74866 | 121.26632 | 16317 ft | 316 kts | 322° |
| 2026-05-07 03:16 | 13.76668 | 121.25333 | 15927 ft | 314 kts | 322° |
| 2026-05-07 03:16 | 13.78440 | 121.24055 | 15572 ft | 311 kts | 323° |
| 2026-05-07 03:16 | 13.80195 | 121.22789 | 15207 ft | 309 kts | 323° |
| 2026-05-07 03:17 | 13.81937 | 121.21532 | 14853 ft | 307 kts | 323° |
| 2026-05-07 03:17 | 13.83694 | 121.20264 | 14498 ft | 305 kts | 323° |
| 2026-05-07 03:17 | 13.85435 | 121.19006 | 14144 ft | 302 kts | 323° |
| 2026-05-07 03:17 | 13.87144 | 121.17773 | 13795 ft | 301 kts | 323° |
| 2026-05-07 03:18 | 13.88860 | 121.16534 | 13444 ft | 299 kts | 323° |
| 2026-05-07 03:18 | 13.90567 | 121.15300 | 13095 ft | 297 kts | 323° |
| 2026-05-07 03:18 | 13.92263 | 121.14074 | 12750 ft | 295 kts | 323° |
| 2026-05-07 03:18 | 13.93951 | 121.12854 | 12408 ft | 294 kts | 323° |
| 2026-05-07 03:19 | 13.94012 | 121.12810 | 12395 ft | 293 kts | 323° |
| 2026-05-07 03:19 | 13.95650 | 121.11626 | 12065 ft | 292 kts | 323° |
| 2026-05-07 03:19 | 13.97306 | 121.10428 | 11731 ft | 290 kts | 323° |
| 2026-05-07 03:19 | 13.98927 | 121.09255 | 11405 ft | 289 kts | 324° |
| 2026-05-07 03:20 | 14.00576 | 121.08062 | 11077 ft | 287 kts | 324° |
| 2026-05-07 03:20 | 14.02214 | 121.06878 | 10752 ft | 286 kts | 324° |
| 2026-05-07 03:20 | 14.03858 | 121.05688 | 10388 ft | 286 kts | 324° |
| 2026-05-07 03:20 | 14.05491 | 121.04506 | 9910 ft | 288 kts | 325° |
| 2026-05-07 03:21 | 14.07131 | 121.03320 | 9497 ft | 286 kts | 325° |
| 2026-05-07 03:21 | 14.08743 | 121.02151 | 9114 ft | 284 kts | 325° |
| 2026-05-07 03:21 | 14.10373 | 121.00971 | 8737 ft | 282 kts | 326° |
| 2026-05-07 03:21 | 14.11949 | 120.99831 | 8372 ft | 280 kts | 326° |
| 2026-05-07 03:22 | 14.13624 | 120.98620 | 7994 ft | 278 kts | 326° |
| 2026-05-07 03:22 | 14.15248 | 120.97443 | 7624 ft | 276 kts | 326° |
| 2026-05-07 03:22 | 14.16802 | 120.96317 | 7266 ft | 274 kts | 326° |
| 2026-05-07 03:22 | 14.18240 | 120.95276 | 6939 ft | 272 kts | 326° |
| 2026-05-07 03:23 | 14.19923 | 120.94058 | 6563 ft | 270 kts | 326° |
| 2026-05-07 03:23 | 14.21364 | 120.93012 | 6239 ft | 268 kts | 327° |
| 2026-05-07 03:23 | 14.22874 | 120.91914 | 5884 ft | 268 kts | 327° |
| 2026-05-07 03:23 | 14.24410 | 120.90803 | 5541 ft | 266 kts | 327° |
| 2026-05-07 03:24 | 14.25903 | 120.89720 | 5473 ft | 255 kts | 327° |
| 2026-05-07 03:24 | 14.27366 | 120.88675 | 5442 ft | 254 kts | 329° |
| 2026-05-07 03:24 | 14.28890 | 120.87731 | 5194 ft | 255 kts | 332° |
| 2026-05-07 03:24 | 14.30449 | 120.86821 | 4845 ft | 254 kts | 333° |
| 2026-05-07 03:25 | 14.31992 | 120.85924 | 4513 ft | 252 kts | 333° |
| 2026-05-07 03:25 | 14.33523 | 120.85032 | 4185 ft | 249 kts | 333° |
| 2026-05-07 03:25 | 14.35035 | 120.84150 | 3867 ft | 246 kts | 333° |
| 2026-05-07 03:25 | 14.36507 | 120.83288 | 3555 ft | 244 kts | 333° |
| 2026-05-07 03:26 | 14.38092 | 120.82697 | 3201 ft | 238 kts | 359° |
| 2026-05-07 03:26 | 14.39647 | 120.83021 | 2998 ft | 224 kts | 32° |
| 2026-05-07 03:26 | 14.40789 | 120.84038 | 3096 ft | 203 kts | 51° |
| 2026-05-07 03:26 | 14.41539 | 120.85152 | 3062 ft | 176 kts | 59° |
| 2026-05-07 03:27 | 14.42123 | 120.86186 | 3040 ft | 162 kts | 60° |
| 2026-05-07 03:27 | 14.42673 | 120.87192 | 2913 ft | 156 kts | 60° |
| 2026-05-07 03:27 | 14.43201 | 120.88152 | 2682 ft | 151 kts | 62° |
| 2026-05-07 03:27 | 14.43731 | 120.89109 | 2463 ft | 150 kts | 63° |
| 2026-05-07 03:28 | 14.44251 | 120.90050 | 2263 ft | 149 kts | 62° |
| 2026-05-07 03:28 | 14.44763 | 120.90974 | 2070 ft | 149 kts | 60° |
| 2026-05-07 03:28 | 14.45285 | 120.91910 | 1866 ft | 148 kts | 62° |
| 2026-05-07 03:28 | 14.45784 | 120.92809 | 1676 ft | 148 kts | 62° |
| 2026-05-07 03:29 | 14.46274 | 120.93692 | 1490 ft | 147 kts | 62° |
| 2026-05-07 03:29 | 14.46797 | 120.94631 | 1292 ft | 147 kts | 63° |
| 2026-05-07 03:29 | 14.47313 | 120.95564 | 1098 ft | 147 kts | 60° |
| 2026-05-07 03:29 | 14.47814 | 120.96464 | 904 ft | 146 kts | 60° |
| 2026-05-07 03:30 | 14.48340 | 120.97370 | 675 ft | 147 kts | 62° |
| 2026-05-07 03:30 | 14.48834 | 120.98292 | 497 ft | 145 kts | 63° |
| 2026-05-07 03:30 | 14.49330 | 120.99205 | 324 ft | 145 kts | 61° |
| 2026-05-07 03:30 | 14.49833 | 121.00096 | 129 ft | 143 kts | 61° |
| 2026-05-07 03:31 | 14.50292 | 121.00928 | 84 ft | 110 kts | 60° |
| 2026-05-07 03:31 | 14.50589 | 121.01462 | 84 ft | 60 kts | 60° |
| 2026-05-07 03:31 | 14.50748 | 121.01700 | 84 ft | 23 kts | 46° |
| 2026-05-07 03:31 | 14.50831 | 121.01770 | 84 ft | 8 kts | 38° |
| 2026-05-07 03:32 | 14.50883 | 121.01785 | 84 ft | 8 kts | 343° |
| 2026-05-07 03:32 | 14.50928 | 121.01749 | 84 ft | 8 kts | 315° |
| 2026-05-07 03:32 | 14.50971 | 121.01704 | 84 ft | 8 kts | 315° |
| 2026-05-07 03:32 | 14.51015 | 121.01659 | 84 ft | 9 kts | 315° |
| 2026-05-07 03:33 | 14.51062 | 121.01610 | 84 ft | 9 kts | 315° |
| 2026-05-07 03:33 | 14.51112 | 121.01559 | 84 ft | 10 kts | 315° |
| 2026-05-07 03:33 | 14.51163 | 121.01507 | 84 ft | 10 kts | 315° |
| 2026-05-07 03:33 | 14.51215 | 121.01452 | 84 ft | 10 kts | 315° |
| 2026-05-07 03:34 | 14.51266 | 121.01427 | 84 ft | 8 kts | 6° |
| 2026-05-07 03:34 | 14.51319 | 121.01475 | 84 ft | 11 kts | 50° |
| 2026-05-07 03:34 | 14.51376 | 121.01542 | 84 ft | 12 kts | 45° |
| 2026-05-07 03:34 | 14.51445 | 121.01601 | 84 ft | 12 kts | 33° |
| 2026-05-07 03:35 | 14.51512 | 121.01662 | 84 ft | 12 kts | 45° |
| 2026-05-07 03:35 | 14.51576 | 121.01727 | 84 ft | 12 kts | 45° |
| 2026-05-07 03:35 | 14.51628 | 121.01778 | 84 ft | 7 kts | 32° |
| 2026-05-07 03:35 | 14.51678 | 121.01778 | 84 ft | 5 kts | 330° |
| 2026-05-07 03:36 | 14.51685 | 121.01749 | 84 ft | 4 kts | 241° |
| 2026-05-07 03:36 | 14.51669 | 121.01731 | 84 ft | 3 kts | 224° |
| 2026-05-07 03:36 | 14.51657 | 121.01720 | 84 ft | 0 kts | 224° |
| 2026-05-07 03:36 | 14.51655 | 121.01717 | 84 ft | 0 kts | 224° |